sensor_id;sensor_type;location;lat;lon;timestamp;pressure;altitude;pressure_sealevel;temperature;humidity
57600;BME280;43426;43.594;24.334;2024-01-30T00:01:05;103756.06;;;0.49;100.00
57600;BME280;43426;43.594;24.334;2024-01-30T00:03:30;103723.66;;;0.33;100.00
57600;BME280;43426;43.594;24.334;2024-01-30T00:05:56;103723.66;;;0.33;100.00
57600;BME280;43426;43.594;24.334;2024-01-30T00:08:21;103744.72;;;0.41;100.00
57600;BME280;43426;43.594;24.334;2024-01-30T00:10:46;103743.06;;;0.36;100.00
57600;BME280;43426;43.594;24.334;2024-01-30T00:13:12;103724.50;;;0.34;100.00
57600;BME280;43426;43.594;24.334;2024-01-30T00:15:39;103719.44;;;0.22;100.00
57600;BME280;43426;43.594;24.334;2024-01-30T00:18:04;103758.94;;;0.40;100.00
57600;BME280;43426;43.594;24.334;2024-01-30T00:20:30;103730.13;;;0.19;100.00
57600;BME280;43426;43.594;24.334;2024-01-30T00:22:55;103717.88;;;0.11;100.00
57600;BME280;43426;43.594;24.334;2024-01-30T00:25:21;103744.94;;;0.30;100.00
57600;BME280;43426;43.594;24.334;2024-01-30T00:27:46;103733.56;;;0.22;100.00
57600;BME280;43426;43.594;24.334;2024-01-30T00:30:12;103744.09;;;0.28;100.00
57600;BME280;43426;43.594;24.334;2024-01-30T00:32:38;103711.84;;;0.03;100.00
57600;BME280;43426;43.594;24.334;2024-01-30T00:35:03;103731.97;;;0.13;100.00
57600;BME280;43426;43.594;24.334;2024-01-30T00:37:29;103737.34;;;0.10;100.00
57600;BME280;43426;43.594;24.334;2024-01-30T00:39:54;103725.94;;;0.05;100.00
57600;BME280;43426;43.594;24.334;2024-01-30T00:42:20;103725.91;;;0.07;100.00
57600;BME280;43426;43.594;24.334;2024-01-30T00:44:46;103732.00;;;0.12;100.00
57600;BME280;43426;43.594;24.334;2024-01-30T00:47:11;103751.44;;;0.15;100.00
57600;BME280;43426;43.594;24.334;2024-01-30T00:49:37;103749.59;;;0.17;100.00
57600;BME280;43426;43.594;24.334;2024-01-30T00:52:03;103756.50;;;0.26;100.00
57600;BME280;43426;43.594;24.334;2024-01-30T00:54:29;103744.16;;;0.25;100.00
57600;BME280;43426;43.594;24.334;2024-01-30T00:56:54;103724.88;;;0.15;100.00
57600;BME280;43426;43.594;24.334;2024-01-30T00:59:20;103752.94;;;0.29;100.00
57600;BME280;43426;43.594;24.334;2024-01-30T01:01:45;103742.44;;;0.23;100.00
57600;BME280;43426;43.594;24.334;2024-01-30T01:04:11;103726.75;;;0.10;100.00
57600;BME280;43426;43.594;24.334;2024-01-30T01:06:36;103692.69;;;-0.14;100.00
57600;BME280;43426;43.594;24.334;2024-01-30T01:09:02;103707.72;;;-0.13;100.00
57600;BME280;43426;43.594;24.334;2024-01-30T01:11:28;103726.97;;;-0.02;100.00
57600;BME280;43426;43.594;24.334;2024-01-30T01:13:54;103747.75;;;0.23;100.00
57600;BME280;43426;43.594;24.334;2024-01-30T01:16:19;103710.91;;;0.04;100.00
57600;BME280;43426;43.594;24.334;2024-01-30T01:18:45;103716.25;;;0.03;100.00
57600;BME280;43426;43.594;24.334;2024-01-30T01:21:11;103699.59;;;-0.06;100.00
57600;BME280;43426;43.594;24.334;2024-01-30T01:23:36;103745.13;;;0.21;100.00
57600;BME280;43426;43.594;24.334;2024-01-30T01:26:02;103713.59;;;0.03;100.00
57600;BME280;43426;43.594;24.334;2024-01-30T01:28:27;103746.06;;;0.19;100.00
57600;BME280;43426;43.594;24.334;2024-01-30T01:30:53;103736.53;;;0.07;100.00
57600;BME280;43426;43.594;24.334;2024-01-30T01:33:18;103710.88;;;0.07;100.00
57600;BME280;43426;43.594;24.334;2024-01-30T01:35:44;103735.53;;;0.12;100.00
57600;BME280;43426;43.594;24.334;2024-01-30T01:38:10;103719.13;;;-0.08;100.00
57600;BME280;43426;43.594;24.334;2024-01-30T01:40:35;103733.84;;;0.08;100.00
57600;BME280;43426;43.594;24.334;2024-01-30T01:43:03;103711.69;;;0.09;100.00
57600;BME280;43426;43.594;24.334;2024-01-30T01:45:30;103735.28;;;0.28;99.33
57600;BME280;43426;43.594;24.334;2024-01-30T01:47:55;103710.69;;;0.16;99.13
57600;BME280;43426;43.594;24.334;2024-01-30T01:50:21;103730.06;;;0.22;98.69
57600;BME280;43426;43.594;24.334;2024-01-30T01:52:48;103721.25;;;0.20;98.68
57600;BME280;43426;43.594;24.334;2024-01-30T01:55:17;103739.66;;;0.29;99.50
57600;BME280;43426;43.594;24.334;2024-01-30T01:57:46;103694.13;;;0.04;99.80
57600;BME280;43426;43.594;24.334;2024-01-30T02:00:12;103699.88;;;0.26;97.49
57600;BME280;43426;43.594;24.334;2024-01-30T02:02:39;103714.41;;;0.53;96.73
57600;BME280;43426;43.594;24.334;2024-01-30T02:05:04;103724.34;;;0.43;97.28
57600;BME280;43426;43.594;24.334;2024-01-30T02:07:30;103697.78;;;-0.04;98.55
57600;BME280;43426;43.594;24.334;2024-01-30T02:09:56;103696.00;;;-0.03;99.59
57600;BME280;43426;43.594;24.334;2024-01-30T02:12:21;103735.59;;;0.09;100.00
57600;BME280;43426;43.594;24.334;2024-01-30T02:14:48;103722.41;;;0.05;100.00
57600;BME280;43426;43.594;24.334;2024-01-30T02:17:15;103730.38;;;0.05;100.00
57600;BME280;43426;43.594;24.334;2024-01-30T02:19:41;103729.56;;;0.01;100.00
57600;BME280;43426;43.594;24.334;2024-01-30T02:22:07;103713.78;;;-0.07;100.00
57600;BME280;43426;43.594;24.334;2024-01-30T02:24:33;103735.78;;;0.00;100.00
57600;BME280;43426;43.594;24.334;2024-01-30T02:26:58;103693.69;;;-0.22;100.00
57600;BME280;43426;43.594;24.334;2024-01-30T02:29:24;103691.84;;;-0.18;100.00
57600;BME280;43426;43.594;24.334;2024-01-30T02:31:49;103736.38;;;0.16;100.00
57600;BME280;43426;43.594;24.334;2024-01-30T02:34:15;103693.34;;;-0.03;100.00
57600;BME280;43426;43.594;24.334;2024-01-30T02:36:44;103723.16;;;0.13;100.00
57600;BME280;43426;43.594;24.334;2024-01-30T02:39:10;103725.84;;;0.11;100.00
57600;BME280;43426;43.594;24.334;2024-01-30T02:41:36;103724.09;;;0.10;100.00
57600;BME280;43426;43.594;24.334;2024-01-30T02:44:02;103700.53;;;-0.08;100.00
57600;BME280;43426;43.594;24.334;2024-01-30T02:46:28;103704.16;;;-0.12;100.00
57600;BME280;43426;43.594;24.334;2024-01-30T02:48:53;103721.59;;;0.01;100.00
57600;BME280;43426;43.594;24.334;2024-01-30T02:51:19;103733.84;;;0.08;100.00
57600;BME280;43426;43.594;24.334;2024-01-30T02:53:44;103707.78;;;-0.18;100.00
57600;BME280;43426;43.594;24.334;2024-01-30T02:56:10;103726.97;;;-0.02;100.00
57600;BME280;43426;43.594;24.334;2024-01-30T02:58:36;103720.09;;;-0.14;100.00
57600;BME280;43426;43.594;24.334;2024-01-30T03:01:02;103711.28;;;-0.16;100.00
57600;BME280;43426;43.594;24.334;2024-01-30T03:03:28;103726.03;;;0.01;100.00
57600;BME280;43426;43.594;24.334;2024-01-30T03:05:53;103732.88;;;0.12;100.00
57600;BME280;43426;43.594;24.334;2024-01-30T03:08:19;103734.03;;;-0.01;100.00
57600;BME280;43426;43.594;24.334;2024-01-30T03:10:45;103703.38;;;-0.19;100.00
57600;BME280;43426;43.594;24.334;2024-01-30T03:13:10;103728.66;;;0.02;100.00
57600;BME280;43426;43.594;24.334;2024-01-30T03:15:36;103690.19;;;-0.24;100.00
57600;BME280;43426;43.594;24.334;2024-01-30T03:18:02;103697.38;;;-0.29;100.00
57600;BME280;43426;43.594;24.334;2024-01-30T03:20:31;103700.84;;;-0.27;100.00
57600;BME280;43426;43.594;24.334;2024-01-30T03:22:57;103724.47;;;-0.11;100.00
57600;BME280;43426;43.594;24.334;2024-01-30T03:25:24;103717.53;;;-0.19;100.00
57600;BME280;43426;43.594;24.334;2024-01-30T03:27:50;103714.91;;;-0.20;100.00
57600;BME280;43426;43.594;24.334;2024-01-30T03:30:16;103722.78;;;-0.17;100.00
57600;BME280;43426;43.594;24.334;2024-01-30T03:32:42;103692.09;;;-0.30;100.00
57600;BME280;43426;43.594;24.334;2024-01-30T03:35:08;103722.81;;;-0.19;100.00
57600;BME280;43426;43.594;24.334;2024-01-30T03:37:34;103721.03;;;-0.18;100.00
57600;BME280;43426;43.594;24.334;2024-01-30T03:39:59;103690.22;;;-0.25;100.00
57600;BME280;43426;43.594;24.334;2024-01-30T03:42:25;103711.09;;;-0.05;100.00
57600;BME280;43426;43.594;24.334;2024-01-30T03:44:50;103687.50;;;-0.21;100.00
57600;BME280;43426;43.594;24.334;2024-01-30T03:47:20;103689.25;;;-0.21;100.00
57600;BME280;43426;43.594;24.334;2024-01-30T03:49:46;103677.00;;;-0.28;100.00
57600;BME280;43426;43.594;24.334;2024-01-30T03:52:12;103712.84;;;-0.04;100.00
57600;BME280;43426;43.594;24.334;2024-01-30T03:54:37;103711.94;;;-0.03;100.00
57600;BME280;43426;43.594;24.334;2024-01-30T03:57:03;103678.81;;;-0.32;100.00
57600;BME280;43426;43.594;24.334;2024-01-30T03:59:29;103716.56;;;-0.14;100.00
57600;BME280;43426;43.594;24.334;2024-01-30T04:01:54;103684.94;;;-0.27;100.00
57600;BME280;43426;43.594;24.334;2024-01-30T04:04:22;103706.00;;;-0.18;100.00
57600;BME280;43426;43.594;24.334;2024-01-30T04:06:48;103727.13;;;-0.11;100.00
57600;BME280;43426;43.594;24.334;2024-01-30T04:09:14;103721.06;;;-0.20;100.00
57600;BME280;43426;43.594;24.334;2024-01-30T04:11:40;103706.09;;;-0.24;100.00
57600;BME280;43426;43.594;24.334;2024-01-30T04:14:05;103683.47;;;-0.45;100.00
57600;BME280;43426;43.594;24.334;2024-01-30T04:16:31;103711.41;;;-0.24;100.00
57600;BME280;43426;43.594;24.334;2024-01-30T04:18:57;103679.88;;;-0.41;100.00
57600;BME280;43426;43.594;24.334;2024-01-30T04:21:23;103736.09;;;-0.19;100.00
57600;BME280;43426;43.594;24.334;2024-01-30T04:23:50;103701.78;;;-0.29;100.00
57600;BME280;43426;43.594;24.334;2024-01-30T04:26:15;103693.75;;;-0.25;100.00
57600;BME280;43426;43.594;24.334;2024-01-30T04:28:41;103675.44;;;-0.40;100.00
57600;BME280;43426;43.594;24.334;2024-01-30T04:31:07;103717.44;;;-0.14;100.00
57600;BME280;43426;43.594;24.334;2024-01-30T04:33:33;103734.88;;;-0.01;100.00
57600;BME280;43426;43.594;24.334;2024-01-30T04:35:58;103734.13;;;-0.07;100.00
57600;BME280;43426;43.594;24.334;2024-01-30T04:38:24;103748.41;;;-0.14;100.00
57600;BME280;43426;43.594;24.334;2024-01-30T04:40:49;103730.78;;;-0.19;100.00
57600;BME280;43426;43.594;24.334;2024-01-30T04:43:15;103674.94;;;-0.61;100.00
57600;BME280;43426;43.594;24.334;2024-01-30T04:45:41;103714.28;;;-0.35;100.00
57600;BME280;43426;43.594;24.334;2024-01-30T04:48:07;103708.09;;;-0.37;100.00
57600;BME280;43426;43.594;24.334;2024-01-30T04:50:32;103702.88;;;-0.41;100.00
57600;BME280;43426;43.594;24.334;2024-01-30T04:52:58;103711.63;;;-0.36;100.00
57600;BME280;43426;43.594;24.334;2024-01-30T04:55:24;103743.75;;;0.00;100.00
57600;BME280;43426;43.594;24.334;2024-01-30T04:57:49;103736.13;;;-0.20;100.00
57600;BME280;43426;43.594;24.334;2024-01-30T05:00:15;103713.69;;;-0.54;100.00
57600;BME280;43426;43.594;24.334;2024-01-30T05:02:41;103740.03;;;-0.41;100.00
57600;BME280;43426;43.594;24.334;2024-01-30T05:05:06;103724.09;;;-0.41;100.00
57600;BME280;43426;43.594;24.334;2024-01-30T05:07:33;103732.59;;;-0.21;100.00
57600;BME280;43426;43.594;24.334;2024-01-30T05:09:58;103732.13;;;-0.44;100.00
57600;BME280;43426;43.594;24.334;2024-01-30T05:12:24;103715.72;;;-0.71;100.00
57600;BME280;43426;43.594;24.334;2024-01-30T05:14:49;103750.78;;;-0.50;100.00
57600;BME280;43426;43.594;24.334;2024-01-30T05:17:15;103757.00;;;-0.53;100.00
57600;BME280;43426;43.594;24.334;2024-01-30T05:19:40;103717.59;;;-0.78;100.00
57600;BME280;43426;43.594;24.334;2024-01-30T05:22:06;103747.56;;;-0.71;100.00
57600;BME280;43426;43.594;24.334;2024-01-30T05:24:31;103725.56;;;-0.78;100.00
57600;BME280;43426;43.594;24.334;2024-01-30T05:26:57;103721.13;;;-0.76;100.00
57600;BME280;43426;43.594;24.334;2024-01-30T05:29:22;103736.81;;;-0.62;100.00
57600;BME280;43426;43.594;24.334;2024-01-30T05:31:48;103713.22;;;-0.80;100.00
57600;BME280;43426;43.594;24.334;2024-01-30T05:34:14;103748.25;;;-0.60;100.00
57600;BME280;43426;43.594;24.334;2024-01-30T05:36:39;103737.66;;;-0.60;100.00
57600;BME280;43426;43.594;24.334;2024-01-30T05:39:05;103730.69;;;-0.67;100.00
57600;BME280;43426;43.594;24.334;2024-01-30T05:41:30;103756.91;;;-0.47;100.00
57600;BME280;43426;43.594;24.334;2024-01-30T05:43:56;103757.75;;;-0.45;100.00
57600;BME280;43426;43.594;24.334;2024-01-30T05:46:21;103761.19;;;-0.38;100.00
57600;BME280;43426;43.594;24.334;2024-01-30T05:48:47;103752.38;;;-0.42;100.00
57600;BME280;43426;43.594;24.334;2024-01-30T05:51:12;103720.00;;;-0.62;100.00
57600;BME280;43426;43.594;24.334;2024-01-30T05:53:38;103750.84;;;-0.54;100.00
57600;BME280;43426;43.594;24.334;2024-01-30T05:56:04;103764.66;;;-0.33;100.00
57600;BME280;43426;43.594;24.334;2024-01-30T05:58:30;103758.56;;;-0.40;100.00
57600;BME280;43426;43.594;24.334;2024-01-30T06:00:58;103733.97;;;-0.49;100.00
57600;BME280;43426;43.594;24.334;2024-01-30T06:03:24;103736.63;;;-0.49;100.00
57600;BME280;43426;43.594;24.334;2024-01-30T06:05:49;103746.34;;;-0.48;100.00
57600;BME280;43426;43.594;24.334;2024-01-30T06:08:15;103752.47;;;-0.46;100.00
57600;BME280;43426;43.594;24.334;2024-01-30T06:10:41;103739.22;;;-0.46;100.00
57600;BME280;43426;43.594;24.334;2024-01-30T06:13:06;103748.03;;;-0.46;100.00
57600;BME280;43426;43.594;24.334;2024-01-30T06:15:32;103746.13;;;-0.35;100.00
57600;BME280;43426;43.594;24.334;2024-01-30T06:17:58;103706.78;;;-0.64;100.00
57600;BME280;43426;43.594;24.334;2024-01-30T06:20:24;103710.28;;;-0.62;100.00
57600;BME280;43426;43.594;24.334;2024-01-30T06:22:49;103778.81;;;-0.34;100.00
57600;BME280;43426;43.594;24.334;2024-01-30T06:25:15;103756.88;;;-0.44;100.00
57600;BME280;43426;43.594;24.334;2024-01-30T06:27:42;103758.44;;;-0.30;100.00
57600;BME280;43426;43.594;24.334;2024-01-30T06:30:07;103765.22;;;-0.15;100.00
57600;BME280;43426;43.594;24.334;2024-01-30T06:32:33;103747.13;;;-0.43;100.00
57600;BME280;43426;43.594;24.334;2024-01-30T06:35:02;103741.75;;;-0.40;100.00
57600;BME280;43426;43.594;24.334;2024-01-30T06:37:28;103773.34;;;-0.23;100.00
57600;BME280;43426;43.594;24.334;2024-01-30T06:39:53;103768.09;;;-0.28;100.00
57600;BME280;43426;43.594;24.334;2024-01-30T06:42:19;103773.31;;;-0.22;100.00
57600;BME280;43426;43.594;24.334;2024-01-30T06:44:45;103721.50;;;-0.44;100.00
57600;BME280;43426;43.594;24.334;2024-01-30T06:47:10;103767.03;;;-0.16;100.00
57600;BME280;43426;43.594;24.334;2024-01-30T06:49:36;103782.66;;;0.01;100.00
57600;BME280;43426;43.594;24.334;2024-01-30T06:52:07;103750.22;;;-0.16;100.00
57600;BME280;43426;43.594;24.334;2024-01-30T06:54:33;103785.09;;;0.13;100.00
57600;BME280;43426;43.594;24.334;2024-01-30T06:56:59;103731.00;;;-0.31;100.00
57600;BME280;43426;43.594;24.334;2024-01-30T06:59:24;103788.88;;;0.00;100.00
57600;BME280;43426;43.594;24.334;2024-01-30T07:01:50;103796.69;;;0.08;100.00
57600;BME280;43426;43.594;24.334;2024-01-30T07:04:15;103791.88;;;0.30;100.00
57600;BME280;43426;43.594;24.334;2024-01-30T07:06:41;103776.91;;;0.26;100.00
57600;BME280;43426;43.594;24.334;2024-01-30T07:09:07;103784.75;;;0.30;100.00
57600;BME280;43426;43.594;24.334;2024-01-30T07:11:33;103797.31;;;0.24;100.00
57600;BME280;43426;43.594;24.334;2024-01-30T07:13:59;103801.56;;;0.32;100.00
57600;BME280;43426;43.594;24.334;2024-01-30T07:16:24;103790.88;;;0.36;100.00
57600;BME280;43426;43.594;24.334;2024-01-30T07:18:50;103768.97;;;0.24;100.00
57600;BME280;43426;43.594;24.334;2024-01-30T07:21:16;103758.13;;;0.35;100.00
57600;BME280;43426;43.594;24.334;2024-01-30T07:23:42;103800.91;;;0.68;100.00
57600;BME280;43426;43.594;24.334;2024-01-30T07:26:07;103802.44;;;0.78;100.00
57600;BME280;43426;43.594;24.334;2024-01-30T07:28:34;103789.97;;;0.82;100.00
57600;BME280;43426;43.594;24.334;2024-01-30T07:31:00;103802.84;;;1.02;100.00
57600;BME280;43426;43.594;24.334;2024-01-30T07:33:25;103763.28;;;0.87;100.00
57600;BME280;43426;43.594;24.334;2024-01-30T07:35:52;103791.00;;;1.17;100.00
57600;BME280;43426;43.594;24.334;2024-01-30T07:38:19;103782.16;;;1.15;100.00
57600;BME280;43426;43.594;24.334;2024-01-30T07:40:44;103769.06;;;1.07;100.00
57600;BME280;43426;43.594;24.334;2024-01-30T07:43:10;103794.91;;;1.40;100.00
57600;BME280;43426;43.594;24.334;2024-01-30T07:45:35;103790.28;;;1.48;100.00
57600;BME280;43426;43.594;24.334;2024-01-30T07:48:02;103775.31;;;1.44;100.00
57600;BME280;43426;43.594;24.334;2024-01-30T07:50:28;103769.97;;;1.44;100.00
57600;BME280;43426;43.594;24.334;2024-01-30T07:52:56;103779.13;;;1.69;100.00
57600;BME280;43426;43.594;24.334;2024-01-30T07:55:21;103786.91;;;1.77;100.00
57600;BME280;43426;43.594;24.334;2024-01-30T07:57:52;103758.63;;;1.75;100.00
57600;BME280;43426;43.594;24.334;2024-01-30T08:00:18;103790.78;;;2.01;100.00
57600;BME280;43426;43.594;24.334;2024-01-30T08:02:45;103759.97;;;1.91;98.42
57600;BME280;43426;43.594;24.334;2024-01-30T08:05:11;103794.81;;;2.16;97.86
57600;BME280;43426;43.594;24.334;2024-01-30T08:07:37;103752.94;;;2.21;96.04
57600;BME280;43426;43.594;24.334;2024-01-30T08:10:02;103764.84;;;2.41;95.20
57600;BME280;43426;43.594;24.334;2024-01-30T08:12:29;103792.06;;;2.52;94.87
57600;BME280;43426;43.594;24.334;2024-01-30T08:14:54;103799.03;;;2.58;94.33
57600;BME280;43426;43.594;24.334;2024-01-30T08:17:20;103759.44;;;2.44;92.58
57600;BME280;43426;43.594;24.334;2024-01-30T08:19:45;103740.78;;;2.44;91.30
57600;BME280;43426;43.594;24.334;2024-01-30T08:22:12;103784.56;;;2.67;91.49
57600;BME280;43426;43.594;24.334;2024-01-30T08:24:37;103759.75;;;2.65;91.97
57600;BME280;43426;43.594;24.334;2024-01-30T08:27:06;103787.41;;;2.90;92.01
57600;BME280;43426;43.594;24.334;2024-01-30T08:29:31;103801.19;;;3.06;91.56
57600;BME280;43426;43.594;24.334;2024-01-30T08:31:57;103793.22;;;3.05;89.25
57600;BME280;43426;43.594;24.334;2024-01-30T08:34:24;103771.25;;;2.97;88.28
57600;BME280;43426;43.594;24.334;2024-01-30T08:36:49;103744.00;;;2.87;88.33
57600;BME280;43426;43.594;24.334;2024-01-30T08:39:15;103804.13;;;3.27;87.63
57600;BME280;43426;43.594;24.334;2024-01-30T08:41:40;103798.03;;;3.22;87.07
57600;BME280;43426;43.594;24.334;2024-01-30T08:44:06;103796.94;;;3.29;87.71
57600;BME280;43426;43.594;24.334;2024-01-30T08:46:32;103799.38;;;3.37;86.96
57600;BME280;43426;43.594;24.334;2024-01-30T08:48:59;103765.41;;;3.42;85.10
57600;BME280;43426;43.594;24.334;2024-01-30T08:51:24;103809.06;;;3.68;85.22
57600;BME280;43426;43.594;24.334;2024-01-30T08:53:50;103805.53;;;3.67;83.83
57600;BME280;43426;43.594;24.334;2024-01-30T08:56:16;103778.34;;;3.54;82.96
57600;BME280;43426;43.594;24.334;2024-01-30T08:58:42;103808.81;;;3.75;82.35
57600;BME280;43426;43.594;24.334;2024-01-30T09:01:07;103772.09;;;3.27;82.01
57600;BME280;43426;43.594;24.334;2024-01-30T09:03:33;103796.44;;;3.16;83.13
57600;BME280;43426;43.594;24.334;2024-01-30T09:05:59;103788.72;;;3.07;83.30
57600;BME280;43426;43.594;24.334;2024-01-30T09:08:24;103754.19;;;3.02;83.42
57600;BME280;43426;43.594;24.334;2024-01-30T09:10:50;103773.75;;;3.31;83.76
57600;BME280;43426;43.594;24.334;2024-01-30T09:13:16;103801.66;;;3.49;82.84
57600;BME280;43426;43.594;24.334;2024-01-30T09:15:42;103809.16;;;3.65;82.57
57600;BME280;43426;43.594;24.334;2024-01-30T09:18:08;103796.09;;;3.84;82.07
57600;BME280;43426;43.594;24.334;2024-01-30T09:20:33;103797.00;;;3.83;81.32
57600;BME280;43426;43.594;24.334;2024-01-30T09:22:58;103765.41;;;3.42;79.76
57600;BME280;43426;43.594;24.334;2024-01-30T09:25:24;103776.28;;;3.63;81.10
57600;BME280;43426;43.594;24.334;2024-01-30T09:27:50;103747.13;;;3.56;79.46
57600;BME280;43426;43.594;24.334;2024-01-30T09:30:15;103781.34;;;3.72;79.24
57600;BME280;43426;43.594;24.334;2024-01-30T09:32:43;103785.72;;;3.74;77.54
57600;BME280;43426;43.594;24.334;2024-01-30T09:35:09;103757.88;;;3.55;78.11
57600;BME280;43426;43.594;24.334;2024-01-30T09:37:34;103755.03;;;3.60;78.66
57600;BME280;43426;43.594;24.334;2024-01-30T09:40:00;103773.53;;;3.92;79.86
57600;BME280;43426;43.594;24.334;2024-01-30T09:42:33;103777.78;;;4.23;78.80
57600;BME280;43426;43.594;24.334;2024-01-30T09:45:05;103772.97;;;4.35;77.41
57600;BME280;43426;43.594;24.334;2024-01-30T09:47:42;103753.53;;;4.30;73.53
57600;BME280;43426;43.594;24.334;2024-01-30T09:50:09;103753.50;;;4.06;74.24
57600;BME280;43426;43.594;24.334;2024-01-30T09:52:35;103776.28;;;4.16;72.37
57600;BME280;43426;43.594;24.334;2024-01-30T09:55:00;103766.53;;;3.88;74.69
57600;BME280;43426;43.594;24.334;2024-01-30T09:57:26;103776.16;;;4.19;72.15
57600;BME280;43426;43.594;24.334;2024-01-30T09:59:52;103760.91;;;3.98;72.40
57600;BME280;43426;43.594;24.334;2024-01-30T10:02:20;103768.44;;;4.12;73.53
57600;BME280;43426;43.594;24.334;2024-01-30T10:04:48;103770.63;;;4.25;75.29
57600;BME280;43426;43.594;24.334;2024-01-30T10:07:14;103760.78;;;4.26;74.41
57600;BME280;43426;43.594;24.334;2024-01-30T10:09:40;103765.88;;;4.08;73.42
57600;BME280;43426;43.594;24.334;2024-01-30T10:12:06;103735.59;;;4.08;72.06
57600;BME280;43426;43.594;24.334;2024-01-30T10:14:32;103761.69;;;4.25;74.56
57600;BME280;43426;43.594;24.334;2024-01-30T10:16:58;103730.47;;;4.27;75.03
57600;BME280;43426;43.594;24.334;2024-01-30T10:19:24;103757.69;;;4.62;72.85
57600;BME280;43426;43.594;24.334;2024-01-30T10:21:50;103720.91;;;4.45;72.83
57600;BME280;43426;43.594;24.334;2024-01-30T10:24:15;103751.47;;;4.62;71.41
57600;BME280;43426;43.594;24.334;2024-01-30T10:26:43;103726.88;;;4.52;70.49
57600;BME280;43426;43.594;24.334;2024-01-30T10:29:09;103750.25;;;4.70;69.58
57600;BME280;43426;43.594;24.334;2024-01-30T10:31:35;103744.03;;;4.70;70.14
57600;BME280;43426;43.594;24.334;2024-01-30T10:34:00;103715.47;;;4.70;70.20
57600;BME280;43426;43.594;24.334;2024-01-30T10:36:28;103699.63;;;4.66;70.89
57600;BME280;43426;43.594;24.334;2024-01-30T10:38:59;103742.00;;;5.22;70.46
57600;BME280;43426;43.594;24.334;2024-01-30T10:41:30;103738.44;;;5.22;70.33
57600;BME280;43426;43.594;24.334;2024-01-30T10:44:09;103752.59;;;5.25;69.78
57600;BME280;43426;43.594;24.334;2024-01-30T10:46:37;103744.06;;;5.38;70.26
57600;BME280;43426;43.594;24.334;2024-01-30T10:49:04;103717.22;;;4.95;69.70
57600;BME280;43426;43.594;24.334;2024-01-30T10:51:31;103734.59;;;5.07;70.19
57600;BME280;43426;43.594;24.334;2024-01-30T10:53:57;103734.28;;;5.15;69.74
57600;BME280;43426;43.594;24.334;2024-01-30T10:56:23;103719.97;;;5.16;68.29
57600;BME280;43426;43.594;24.334;2024-01-30T10:58:50;103714.97;;;5.06;68.42
57600;BME280;43426;43.594;24.334;2024-01-30T11:01:18;103710.13;;;5.16;68.78
57600;BME280;43426;43.594;24.334;2024-01-30T11:03:45;103676.00;;;4.99;69.65
57600;BME280;43426;43.594;24.334;2024-01-30T11:06:11;103697.28;;;5.24;69.39
57600;BME280;43426;43.594;24.334;2024-01-30T11:08:43;103702.91;;;5.40;66.93
57600;BME280;43426;43.594;24.334;2024-01-30T11:11:09;103707.38;;;5.40;67.15
57600;BME280;43426;43.594;24.334;2024-01-30T11:13:35;103713.84;;;5.34;67.09
57600;BME280;43426;43.594;24.334;2024-01-30T11:16:02;103704.81;;;5.37;67.44
57600;BME280;43426;43.594;24.334;2024-01-30T11:18:32;103710.66;;;5.46;66.88
57600;BME280;43426;43.594;24.334;2024-01-30T11:21:01;103689.84;;;5.53;67.39
57600;BME280;43426;43.594;24.334;2024-01-30T11:23:30;103711.31;;;5.74;67.02
57600;BME280;43426;43.594;24.334;2024-01-30T11:25:56;103676.22;;;5.59;66.26
57600;BME280;43426;43.594;24.334;2024-01-30T11:28:22;103697.84;;;5.75;65.71
57600;BME280;43426;43.594;24.334;2024-01-30T11:30:48;103697.59;;;5.82;65.49
57600;BME280;43426;43.594;24.334;2024-01-30T11:33:27;103667.59;;;5.73;65.29
57600;BME280;43426;43.594;24.334;2024-01-30T11:35:57;103670.03;;;5.57;64.99
57600;BME280;43426;43.594;24.334;2024-01-30T11:38:25;103685.75;;;5.87;64.74
57600;BME280;43426;43.594;24.334;2024-01-30T11:40:51;103656.66;;;5.78;64.05
57600;BME280;43426;43.594;24.334;2024-01-30T11:43:18;103652.38;;;5.53;64.66
57600;BME280;43426;43.594;24.334;2024-01-30T11:45:45;103644.88;;;5.61;66.09
57600;BME280;43426;43.594;24.334;2024-01-30T11:48:12;103684.13;;;5.83;64.37
57600;BME280;43426;43.594;24.334;2024-01-30T11:50:39;103649.69;;;5.74;62.87
57600;BME280;43426;43.594;24.334;2024-01-30T11:53:05;103623.50;;;5.60;64.02
57600;BME280;43426;43.594;24.334;2024-01-30T11:55:31;103642.97;;;5.84;63.53
57600;BME280;43426;43.594;24.334;2024-01-30T11:57:57;103648.66;;;5.99;61.66
57600;BME280;43426;43.594;24.334;2024-01-30T12:00:22;103665.03;;;5.91;62.96
57600;BME280;43426;43.594;24.334;2024-01-30T12:02:52;103670.31;;;5.92;62.70
57600;BME280;43426;43.594;24.334;2024-01-30T12:05:21;103657.66;;;5.96;63.13
57600;BME280;43426;43.594;24.334;2024-01-30T12:07:47;103643.81;;;5.66;62.71
57600;BME280;43426;43.594;24.334;2024-01-30T12:10:13;103655.44;;;5.85;62.69
57600;BME280;43426;43.594;24.334;2024-01-30T12:12:41;103650.69;;;5.71;62.29
57600;BME280;43426;43.594;24.334;2024-01-30T12:15:07;103660.75;;;5.45;62.26
57600;BME280;43426;43.594;24.334;2024-01-30T12:17:33;103659.44;;;5.34;63.94
57600;BME280;43426;43.594;24.334;2024-01-30T12:20:09;103612.34;;;5.07;62.50
57600;BME280;43426;43.594;24.334;2024-01-30T12:22:40;103630.41;;;5.02;63.80
57600;BME280;43426;43.594;24.334;2024-01-30T12:25:16;103613.78;;;4.94;61.76
57600;BME280;43426;43.594;24.334;2024-01-30T12:27:47;103620.09;;;4.93;60.88
57600;BME280;43426;43.594;24.334;2024-01-30T12:30:17;103594.56;;;4.84;62.63
57600;BME280;43426;43.594;24.334;2024-01-30T12:32:44;103627.69;;;5.24;61.52
57600;BME280;43426;43.594;24.334;2024-01-30T12:35:14;103610.47;;;5.09;61.18